sensor_id;sensor_type;location;lat;lon;timestamp;P1;durP1;ratioP1;P2;durP2;ratioP2
10657;SDS011;5377;43.276;26.930;2023-08-07T00:00:46;7.80;;;7.20;;
10657;SDS011;5377;43.276;26.930;2023-08-07T00:03:13;6.75;;;6.25;;
10657;SDS011;5377;43.276;26.930;2023-08-07T00:05:44;6.60;;;5.70;;
10657;SDS011;5377;43.276;26.930;2023-08-07T00:08:11;7.63;;;6.97;;
10657;SDS011;5377;43.276;26.930;2023-08-07T00:10:39;8.07;;;7.38;;
10657;SDS011;5377;43.276;26.930;2023-08-07T00:13:06;7.22;;;6.72;;
10657;SDS011;5377;43.276;26.930;2023-08-07T00:15:33;6.50;;;5.97;;
10657;SDS011;5377;43.276;26.930;2023-08-07T00:18:00;5.88;;;5.43;;
10657;SDS011;5377;43.276;26.930;2023-08-07T00:20:27;7.82;;;7.13;;
10657;SDS011;5377;43.276;26.930;2023-08-07T00:22:54;6.90;;;6.40;;
10657;SDS011;5377;43.276;26.930;2023-08-07T00:25:20;7.03;;;6.53;;
10657;SDS011;5377;43.276;26.930;2023-08-07T00:27:48;7.68;;;7.07;;
10657;SDS011;5377;43.276;26.930;2023-08-07T00:30:15;7.47;;;6.78;;
10657;SDS011;5377;43.276;26.930;2023-08-07T00:32:42;7.53;;;6.93;;
10657;SDS011;5377;43.276;26.930;2023-08-07T00:35:09;7.68;;;7.07;;
10657;SDS011;5377;43.276;26.930;2023-08-07T00:37:36;6.72;;;6.25;;
10657;SDS011;5377;43.276;26.930;2023-08-07T00:40:03;7.18;;;6.68;;
10657;SDS011;5377;43.276;26.930;2023-08-07T00:42:31;5.97;;;5.38;;
10657;SDS011;5377;43.276;26.930;2023-08-07T00:44:59;6.25;;;5.75;;
10657;SDS011;5377;43.276;26.930;2023-08-07T00:47:26;6.47;;;5.88;;
10657;SDS011;5377;43.276;26.930;2023-08-07T00:49:53;6.65;;;6.18;;
10657;SDS011;5377;43.276;26.930;2023-08-07T00:52:20;6.65;;;6.15;;
10657;SDS011;5377;43.276;26.930;2023-08-07T00:54:46;6.07;;;5.60;;
10657;SDS011;5377;43.276;26.930;2023-08-07T00:57:13;5.55;;;5.15;;
10657;SDS011;5377;43.276;26.930;2023-08-07T00:59:41;6.65;;;6.15;;
10657;SDS011;5377;43.276;26.930;2023-08-07T01:02:10;5.20;;;4.78;;
10657;SDS011;5377;43.276;26.930;2023-08-07T01:04:40;5.40;;;5.05;;
10657;SDS011;5377;43.276;26.930;2023-08-07T01:07:06;6.13;;;5.65;;
10657;SDS011;5377;43.276;26.930;2023-08-07T01:09:33;4.82;;;4.53;;
10657;SDS011;5377;43.276;26.930;2023-08-07T01:12:02;5.20;;;4.80;;
10657;SDS011;5377;43.276;26.930;2023-08-07T01:14:40;6.32;;;5.82;;
10657;SDS011;5377;43.276;26.930;2023-08-07T01:17:17;5.03;;;4.63;;
10657;SDS011;5377;43.276;26.930;2023-08-07T01:19:47;5.63;;;5.13;;
10657;SDS011;5377;43.276;26.930;2023-08-07T01:22:18;4.95;;;4.65;;
10657;SDS011;5377;43.276;26.930;2023-08-07T01:24:46;5.90;;;5.32;;
10657;SDS011;5377;43.276;26.930;2023-08-07T01:27:34;5.43;;;5.13;;
10657;SDS011;5377;43.276;26.930;2023-08-07T01:30:07;4.20;;;3.90;;
10657;SDS011;5377;43.276;26.930;2023-08-07T01:32:43;5.03;;;4.53;;
10657;SDS011;5377;43.276;26.930;2023-08-07T01:35:16;5.07;;;4.78;;
10657;SDS011;5377;43.276;26.930;2023-08-07T01:37:47;5.75;;;5.22;;
10657;SDS011;5377;43.276;26.930;2023-08-07T01:40:16;5.45;;;5.05;;
10657;SDS011;5377;43.276;26.930;2023-08-07T01:42:44;5.20;;;4.80;;
10657;SDS011;5377;43.276;26.930;2023-08-07T01:45:12;5.80;;;5.20;;
10657;SDS011;5377;43.276;26.930;2023-08-07T01:47:39;4.95;;;4.60;;
10657;SDS011;5377;43.276;26.930;2023-08-07T01:50:06;5.15;;;4.75;;
10657;SDS011;5377;43.276;26.930;2023-08-07T01:52:33;5.05;;;4.65;;
10657;SDS011;5377;43.276;26.930;2023-08-07T01:55:01;3.85;;;3.65;;
10657;SDS011;5377;43.276;26.930;2023-08-07T01:57:28;5.03;;;4.60;;
10657;SDS011;5377;43.276;26.930;2023-08-07T01:59:56;3.60;;;3.35;;
10657;SDS011;5377;43.276;26.930;2023-08-07T02:02:22;4.50;;;4.20;;
10657;SDS011;5377;43.276;26.930;2023-08-07T02:04:49;3.40;;;3.20;;
10657;SDS011;5377;43.276;26.930;2023-08-07T02:07:16;4.35;;;4.15;;
10657;SDS011;5377;43.276;26.930;2023-08-07T02:09:43;4.30;;;4.00;;
10657;SDS011;5377;43.276;26.930;2023-08-07T02:12:11;4.45;;;4.15;;
10657;SDS011;5377;43.276;26.930;2023-08-07T02:14:38;3.75;;;3.55;;
10657;SDS011;5377;43.276;26.930;2023-08-07T02:17:05;4.00;;;3.70;;
10657;SDS011;5377;43.276;26.930;2023-08-07T02:19:32;4.18;;;3.72;;
10657;SDS011;5377;43.276;26.930;2023-08-07T02:21:58;3.97;;;3.70;;
10657;SDS011;5377;43.276;26.930;2023-08-07T02:24:25;4.13;;;3.92;;
10657;SDS011;5377;43.276;26.930;2023-08-07T02:26:52;3.78;;;3.55;;
10657;SDS011;5377;43.276;26.930;2023-08-07T02:29:20;4.45;;;4.15;;
10657;SDS011;5377;43.276;26.930;2023-08-07T02:31:47;4.45;;;3.70;;
10657;SDS011;5377;43.276;26.930;2023-08-07T02:34:14;14.23;;;10.82;;
10657;SDS011;5377;43.276;26.930;2023-08-07T02:36:41;34.75;;;24.58;;
10657;SDS011;5377;43.276;26.930;2023-08-07T02:39:07;40.85;;;35.35;;
10657;SDS011;5377;43.276;26.930;2023-08-07T02:41:34;35.92;;;32.58;;
10657;SDS011;5377;43.276;26.930;2023-08-07T02:44:01;26.80;;;24.42;;
10657;SDS011;5377;43.276;26.930;2023-08-07T02:46:29;37.72;;;34.47;;
10657;SDS011;5377;43.276;26.930;2023-08-07T02:48:56;40.03;;;36.53;;
10657;SDS011;5377;43.276;26.930;2023-08-07T02:51:22;29.27;;;26.50;;
10657;SDS011;5377;43.276;26.930;2023-08-07T02:53:49;36.90;;;33.17;;
10657;SDS011;5377;43.276;26.930;2023-08-07T02:56:16;38.28;;;34.55;;
10657;SDS011;5377;43.276;26.930;2023-08-07T02:58:43;29.25;;;26.55;;
10657;SDS011;5377;43.276;26.930;2023-08-07T03:01:09;31.67;;;28.45;;
10657;SDS011;5377;43.276;26.930;2023-08-07T03:03:38;38.42;;;34.67;;
10657;SDS011;5377;43.276;26.930;2023-08-07T03:06:04;11.93;;;10.80;;
10657;SDS011;5377;43.276;26.930;2023-08-07T03:08:31;13.27;;;12.10;;
10657;SDS011;5377;43.276;26.930;2023-08-07T03:10:58;21.88;;;19.67;;
10657;SDS011;5377;43.276;26.930;2023-08-07T03:13:25;29.52;;;26.70;;
10657;SDS011;5377;43.276;26.930;2023-08-07T03:15:58;11.02;;;9.90;;
10657;SDS011;5377;43.276;26.930;2023-08-07T03:18:25;18.85;;;17.02;;
10657;SDS011;5377;43.276;26.930;2023-08-07T03:20:53;23.65;;;21.52;;
10657;SDS011;5377;43.276;26.930;2023-08-07T03:23:20;27.55;;;24.80;;
10657;SDS011;5377;43.276;26.930;2023-08-07T03:25:47;21.83;;;19.80;;
10657;SDS011;5377;43.276;26.930;2023-08-07T03:28:14;13.27;;;11.95;;
10657;SDS011;5377;43.276;26.930;2023-08-07T03:30:41;10.13;;;5.88;;
10657;SDS011;5377;43.276;26.930;2023-08-07T03:33:09;3.97;;;3.58;;
10657;SDS011;5377;43.276;26.930;2023-08-07T03:35:36;5.10;;;4.70;;
10657;SDS011;5377;43.276;26.930;2023-08-07T03:38:04;5.28;;;4.85;;
10657;SDS011;5377;43.276;26.930;2023-08-07T03:40:32;5.07;;;4.63;;
10657;SDS011;5377;43.276;26.930;2023-08-07T03:42:59;4.95;;;4.65;;
10657;SDS011;5377;43.276;26.930;2023-08-07T03:45:26;11.02;;;9.93;;
10657;SDS011;5377;43.276;26.930;2023-08-07T03:47:52;8.32;;;7.10;;
10657;SDS011;5377;43.276;26.930;2023-08-07T03:50:19;10.18;;;9.27;;
10657;SDS011;5377;43.276;26.930;2023-08-07T03:52:46;3.30;;;3.00;;
10657;SDS011;5377;43.276;26.930;2023-08-07T03:55:14;2.55;;;2.45;;
10657;SDS011;5377;43.276;26.930;2023-08-07T03:57:41;3.83;;;3.63;;
10657;SDS011;5377;43.276;26.930;2023-08-07T04:00:08;3.35;;;3.10;;
10657;SDS011;5377;43.276;26.930;2023-08-07T04:02:35;4.68;;;4.13;;
10657;SDS011;5377;43.276;26.930;2023-08-07T04:05:02;2.50;;;2.40;;
10657;SDS011;5377;43.276;26.930;2023-08-07T04:07:29;2.08;;;1.98;;
10657;SDS011;5377;43.276;26.930;2023-08-07T04:09:56;2.85;;;2.67;;
10657;SDS011;5377;43.276;26.930;2023-08-07T04:12:24;2.20;;;2.10;;
10657;SDS011;5377;43.276;26.930;2023-08-07T04:14:51;2.63;;;2.42;;
10657;SDS011;5377;43.276;26.930;2023-08-07T04:17:18;2.50;;;2.35;;
10657;SDS011;5377;43.276;26.930;2023-08-07T04:19:44;3.65;;;3.45;;
10657;SDS011;5377;43.276;26.930;2023-08-07T04:22:11;1.70;;;1.60;;
10657;SDS011;5377;43.276;26.930;2023-08-07T04:24:38;2.05;;;1.95;;
10657;SDS011;5377;43.276;26.930;2023-08-07T04:27:05;2.30;;;2.10;;
10657;SDS011;5377;43.276;26.930;2023-08-07T04:29:34;4.90;;;3.42;;
10657;SDS011;5377;43.276;26.930;2023-08-07T04:32:01;3.33;;;3.13;;
10657;SDS011;5377;43.276;26.930;2023-08-07T04:34:28;2.35;;;2.15;;
10657;SDS011;5377;43.276;26.930;2023-08-07T04:36:55;3.30;;;3.08;;
10657;SDS011;5377;43.276;26.930;2023-08-07T04:39:22;3.85;;;3.50;;
10657;SDS011;5377;43.276;26.930;2023-08-07T04:41:48;2.88;;;2.22;;
10657;SDS011;5377;43.276;26.930;2023-08-07T04:44:15;5.30;;;2.72;;
10657;SDS011;5377;43.276;26.930;2023-08-07T04:46:43;4.78;;;3.33;;
10657;SDS011;5377;43.276;26.930;2023-08-07T04:49:10;1.98;;;1.88;;
10657;SDS011;5377;43.276;26.930;2023-08-07T04:51:37;1.92;;;1.83;;
10657;SDS011;5377;43.276;26.930;2023-08-07T04:54:04;1.83;;;1.73;;
10657;SDS011;5377;43.276;26.930;2023-08-07T04:56:31;2.08;;;1.98;;
10657;SDS011;5377;43.276;26.930;2023-08-07T04:58:58;1.50;;;1.40;;
10657;SDS011;5377;43.276;26.930;2023-08-07T05:01:25;1.45;;;1.45;;
10657;SDS011;5377;43.276;26.930;2023-08-07T05:03:53;2.35;;;2.13;;
10657;SDS011;5377;43.276;26.930;2023-08-07T05:06:20;1.70;;;1.60;;
10657;SDS011;5377;43.276;26.930;2023-08-07T05:08:47;1.58;;;1.50;;
10657;SDS011;5377;43.276;26.930;2023-08-07T05:11:14;2.17;;;1.63;;
10657;SDS011;5377;43.276;26.930;2023-08-07T05:13:41;1.63;;;1.63;;
10657;SDS011;5377;43.276;26.930;2023-08-07T05:16:07;1.80;;;1.70;;
10657;SDS011;5377;43.276;26.930;2023-08-07T05:18:34;2.03;;;1.92;;
10657;SDS011;5377;43.276;26.930;2023-08-07T05:21:02;1.70;;;1.60;;
10657;SDS011;5377;43.276;26.930;2023-08-07T05:23:29;4.13;;;1.70;;
10657;SDS011;5377;43.276;26.930;2023-08-07T05:25:56;1.60;;;1.40;;
10657;SDS011;5377;43.276;26.930;2023-08-07T05:28:23;2.05;;;1.95;;
10657;SDS011;5377;43.276;26.930;2023-08-07T05:30:50;1.77;;;1.67;;
10657;SDS011;5377;43.276;26.930;2023-08-07T05:33:17;1.80;;;1.25;;
10657;SDS011;5377;43.276;26.930;2023-08-07T05:35:44;4.97;;;1.83;;
10657;SDS011;5377;43.276;26.930;2023-08-07T05:38:12;1.67;;;1.58;;
10657;SDS011;5377;43.276;26.930;2023-08-07T05:40:39;1.95;;;1.08;;
10657;SDS011;5377;43.276;26.930;2023-08-07T05:43:05;3.90;;;1.13;;
10657;SDS011;5377;43.276;26.930;2023-08-07T05:45:33;5.43;;;1.80;;
10657;SDS011;5377;43.276;26.930;2023-08-07T05:48:00;1.48;;;1.38;;
10657;SDS011;5377;43.276;26.930;2023-08-07T05:50:27;1.80;;;1.70;;
10657;SDS011;5377;43.276;26.930;2023-08-07T05:52:53;1.27;;;1.25;;
10657;SDS011;5377;43.276;26.930;2023-08-07T05:55:22;3.15;;;1.60;;
10657;SDS011;5377;43.276;26.930;2023-08-07T05:57:48;1.45;;;1.35;;
10657;SDS011;5377;43.276;26.930;2023-08-07T06:00:15;3.65;;;1.65;;
10657;SDS011;5377;43.276;26.930;2023-08-07T06:02:44;1.60;;;1.50;;
10657;SDS011;5377;43.276;26.930;2023-08-07T06:05:11;2.13;;;1.38;;
10657;SDS011;5377;43.276;26.930;2023-08-07T06:07:40;1.55;;;1.45;;
10657;SDS011;5377;43.276;26.930;2023-08-07T06:10:07;1.80;;;1.25;;
10657;SDS011;5377;43.276;26.930;2023-08-07T06:12:35;1.67;;;1.58;;
10657;SDS011;5377;43.276;26.930;2023-08-07T06:15:02;1.50;;;1.40;;
10657;SDS011;5377;43.276;26.930;2023-08-07T06:17:29;1.63;;;1.45;;
10657;SDS011;5377;43.276;26.930;2023-08-07T06:19:56;1.20;;;1.05;;
10657;SDS011;5377;43.276;26.930;2023-08-07T06:22:24;1.92;;;1.42;;
10657;SDS011;5377;43.276;26.930;2023-08-07T06:24:51;3.15;;;1.30;;
10657;SDS011;5377;43.276;26.930;2023-08-07T06:27:17;1.95;;;0.90;;
10657;SDS011;5377;43.276;26.930;2023-08-07T06:29:48;1.15;;;1.05;;
10657;SDS011;5377;43.276;26.930;2023-08-07T06:32:15;0.90;;;0.90;;
10657;SDS011;5377;43.276;26.930;2023-08-07T06:34:43;1.25;;;0.98;;
10657;SDS011;5377;43.276;26.930;2023-08-07T06:37:11;4.88;;;1.20;;
10657;SDS011;5377;43.276;26.930;2023-08-07T06:39:38;5.25;;;1.50;;
10657;SDS011;5377;43.276;26.930;2023-08-07T06:42:05;0.80;;;0.80;;
10657;SDS011;5377;43.276;26.930;2023-08-07T06:44:32;1.13;;;1.02;;
10657;SDS011;5377;43.276;26.930;2023-08-07T06:47:00;2.78;;;1.08;;
10657;SDS011;5377;43.276;26.930;2023-08-07T06:49:27;1.85;;;1.23;;
10657;SDS011;5377;43.276;26.930;2023-08-07T06:51:54;3.25;;;0.90;;
10657;SDS011;5377;43.276;26.930;2023-08-07T06:54:20;0.98;;;0.98;;
10657;SDS011;5377;43.276;26.930;2023-08-07T06:56:47;1.30;;;1.20;;
10657;SDS011;5377;43.276;26.930;2023-08-07T06:59:14;1.42;;;1.13;;
10657;SDS011;5377;43.276;26.930;2023-08-07T07:01:41;0.63;;;0.63;;
10657;SDS011;5377;43.276;26.930;2023-08-07T07:04:09;1.80;;;1.58;;
10657;SDS011;5377;43.276;26.930;2023-08-07T07:06:36;1.40;;;0.90;;
10657;SDS011;5377;43.276;26.930;2023-08-07T07:09:03;0.77;;;0.75;;
10657;SDS011;5377;43.276;26.930;2023-08-07T07:11:30;2.80;;;1.25;;
10657;SDS011;5377;43.276;26.930;2023-08-07T07:13:57;4.85;;;1.05;;
10657;SDS011;5377;43.276;26.930;2023-08-07T07:16:24;1.27;;;1.17;;
10657;SDS011;5377;43.276;26.930;2023-08-07T07:18:50;2.35;;;0.77;;
10657;SDS011;5377;43.276;26.930;2023-08-07T07:21:19;1.52;;;1.15;;
10657;SDS011;5377;43.276;26.930;2023-08-07T07:23:45;1.73;;;1.17;;
10657;SDS011;5377;43.276;26.930;2023-08-07T07:26:12;1.10;;;1.10;;
10657;SDS011;5377;43.276;26.930;2023-08-07T07:28:39;1.27;;;1.27;;
10657;SDS011;5377;43.276;26.930;2023-08-07T07:31:06;1.23;;;1.10;;
10657;SDS011;5377;43.276;26.930;2023-08-07T07:33:36;1.17;;;1.13;;
10657;SDS011;5377;43.276;26.930;2023-08-07T07:36:04;1.30;;;1.30;;
10657;SDS011;5377;43.276;26.930;2023-08-07T07:38:33;3.08;;;1.30;;
10657;SDS011;5377;43.276;26.930;2023-08-07T07:40:59;1.65;;;1.55;;
10657;SDS011;5377;43.276;26.930;2023-08-07T07:43:26;1.00;;;1.00;;
10657;SDS011;5377;43.276;26.930;2023-08-07T07:45:53;1.77;;;1.67;;
10657;SDS011;5377;43.276;26.930;2023-08-07T07:48:20;2.40;;;1.10;;
10657;SDS011;5377;43.276;26.930;2023-08-07T07:50:46;2.85;;;1.00;;
10657;SDS011;5377;43.276;26.930;2023-08-07T07:53:13;2.05;;;1.15;;
10657;SDS011;5377;43.276;26.930;2023-08-07T07:55:46;10.15;;;1.77;;
10657;SDS011;5377;43.276;26.930;2023-08-07T07:58:13;2.72;;;1.50;;
10657;SDS011;5377;43.276;26.930;2023-08-07T08:00:40;3.42;;;1.30;;
10657;SDS011;5377;43.276;26.930;2023-08-07T08:03:07;2.33;;;0.93;;
10657;SDS011;5377;43.276;26.930;2023-08-07T08:05:34;1.10;;;1.05;;
10657;SDS011;5377;43.276;26.930;2023-08-07T08:08:01;1.65;;;1.38;;
10657;SDS011;5377;43.276;26.930;2023-08-07T08:10:28;4.68;;;1.38;;
10657;SDS011;5377;43.276;26.930;2023-08-07T08:12:56;2.10;;;1.40;;
10657;SDS011;5377;43.276;26.930;2023-08-07T08:15:23;2.15;;;1.13;;
10657;SDS011;5377;43.276;26.930;2023-08-07T08:17:50;5.43;;;1.83;;
10657;SDS011;5377;43.276;26.930;2023-08-07T08:20:17;11.18;;;3.25;;
10657;SDS011;5377;43.276;26.930;2023-08-07T08:22:44;1.15;;;0.90;;
10657;SDS011;5377;43.276;26.930;2023-08-07T08:25:11;1.00;;;0.90;;
10657;SDS011;5377;43.276;26.930;2023-08-07T08:27:38;1.42;;;0.73;;
10657;SDS011;5377;43.276;26.930;2023-08-07T08:30:07;0.77;;;0.77;;
10657;SDS011;5377;43.276;26.930;2023-08-07T08:32:35;1.02;;;0.95;;
10657;SDS011;5377;43.276;26.930;2023-08-07T08:35:01;10.95;;;2.05;;
10657;SDS011;5377;43.276;26.930;2023-08-07T08:40:22;2.83;;;0.90;;
10657;SDS011;5377;43.276;26.930;2023-08-07T08:42:50;1.48;;;0.68;;
10657;SDS011;5377;43.276;26.930;2023-08-07T08:45:20;3.35;;;1.67;;
10657;SDS011;5377;43.276;26.930;2023-08-07T08:47:47;4.70;;;0.98;;
10657;SDS011;5377;43.276;26.930;2023-08-07T08:50:17;0.70;;;0.70;;
10657;SDS011;5377;43.276;26.930;2023-08-07T08:52:45;7.07;;;1.17;;
10657;SDS011;5377;43.276;26.930;2023-08-07T08:55:12;2.50;;;1.00;;
10657;SDS011;5377;43.276;26.930;2023-08-07T08:57:40;0.57;;;0.57;;
10657;SDS011;5377;43.276;26.930;2023-08-07T09:00:08;0.98;;;0.98;;
10657;SDS011;5377;43.276;26.930;2023-08-07T09:02:45;1.85;;;0.80;;
10657;SDS011;5377;43.276;26.930;2023-08-07T09:05:13;1.15;;;0.80;;
10657;SDS011;5377;43.276;26.930;2023-08-07T09:07:40;2.10;;;1.00;;
10657;SDS011;5377;43.276;26.930;2023-08-07T09:10:08;2.03;;;1.25;;
10657;SDS011;5377;43.276;26.930;2023-08-07T09:12:36;0.93;;;0.93;;
10657;SDS011;5377;43.276;26.930;2023-08-07T09:15:07;4.97;;;1.13;;
10657;SDS011;5377;43.276;26.930;2023-08-07T09:17:38;0.68;;;0.68;;
10657;SDS011;5377;43.276;26.930;2023-08-07T09:20:08;1.60;;;0.82;;
10657;SDS011;5377;43.276;26.930;2023-08-07T09:22:38;1.48;;;1.02;;
10657;SDS011;5377;43.276;26.930;2023-08-07T09:25:06;1.13;;;1.13;;
10657;SDS011;5377;43.276;26.930;2023-08-07T09:27:35;1.27;;;0.90;;
10657;SDS011;5377;43.276;26.930;2023-08-07T09:30:04;1.15;;;1.05;;
10657;SDS011;5377;43.276;26.930;2023-08-07T09:32:33;3.10;;;0.73;;
10657;SDS011;5377;43.276;26.930;2023-08-07T09:35:01;1.08;;;1.08;;
10657;SDS011;5377;43.276;26.930;2023-08-07T09:37:31;3.08;;;1.10;;
10657;SDS011;5377;43.276;26.930;2023-08-07T09:39:59;1.67;;;1.02;;
10657;SDS011;5377;43.276;26.930;2023-08-07T09:42:28;1.52;;;1.20;;
10657;SDS011;5377;43.276;26.930;2023-08-07T09:44:57;1.05;;;0.82;;
10657;SDS011;5377;43.276;26.930;2023-08-07T09:47:25;1.75;;;1.00;;
10657;SDS011;5377;43.276;26.930;2023-08-07T09:49:53;0.73;;;0.70;;
10657;SDS011;5377;43.276;26.930;2023-08-07T09:52:21;1.25;;;0.80;;
10657;SDS011;5377;43.276;26.930;2023-08-07T09:54:49;1.55;;;0.88;;
10657;SDS011;5377;43.276;26.930;2023-08-07T09:57:16;3.05;;;0.60;;
10657;SDS011;5377;43.276;26.930;2023-08-07T09:59:43;1.05;;;0.80;;
10657;SDS011;5377;43.276;26.930;2023-08-07T10:02:15;1.15;;;0.90;;
10657;SDS011;5377;43.276;26.930;2023-08-07T10:04:43;0.65;;;0.60;;
10657;SDS011;5377;43.276;26.930;2023-08-07T10:07:10;1.25;;;0.60;;
10657;SDS011;5377;43.276;26.930;2023-08-07T10:09:40;0.63;;;0.63;;
10657;SDS011;5377;43.276;26.930;2023-08-07T10:12:10;0.60;;;0.60;;
10657;SDS011;5377;43.276;26.930;2023-08-07T10:14:37;0.60;;;0.60;;
10657;SDS011;5377;43.276;26.930;2023-08-07T10:17:07;2.17;;;0.60;;
10657;SDS011;5377;43.276;26.930;2023-08-07T10:19:34;4.85;;;1.02;;
10657;SDS011;5377;43.276;26.930;2023-08-07T10:22:04;3.78;;;0.90;;
10657;SDS011;5377;43.276;26.930;2023-08-07T10:24:31;1.27;;;0.60;;
10657;SDS011;5377;43.276;26.930;2023-08-07T10:27:01;0.50;;;0.50;;
10657;SDS011;5377;43.276;26.930;2023-08-07T10:29:30;0.50;;;0.50;;
10657;SDS011;5377;43.276;26.930;2023-08-07T10:31:58;2.17;;;0.73;;
10657;SDS011;5377;43.276;26.930;2023-08-07T10:34:28;0.70;;;0.68;;
10657;SDS011;5377;43.276;26.930;2023-08-07T10:36:55;1.15;;;0.70;;
10657;SDS011;5377;43.276;26.930;2023-08-07T10:39:22;3.63;;;0.80;;
10657;SDS011;5377;43.276;26.930;2023-08-07T10:41:52;1.27;;;0.60;;
10657;SDS011;5377;43.276;26.930;2023-08-07T10:44:20;1.52;;;0.68;;
10657;SDS011;5377;43.276;26.930;2023-08-07T10:46:50;0.65;;;0.65;;
10657;SDS011;5377;43.276;26.930;2023-08-07T10:49:31;0.50;;;0.50;;
10657;SDS011;5377;43.276;26.930;2023-08-07T10:52:01;1.10;;;0.50;;
10657;SDS011;5377;43.276;26.930;2023-08-07T10:54:29;1.05;;;0.50;;
10657;SDS011;5377;43.276;26.930;2023-08-07T10:56:56;0.60;;;0.60;;
10657;SDS011;5377;43.276;26.930;2023-08-07T10:59:25;0.68;;;0.50;;
10657;SDS011;5377;43.276;26.930;2023-08-07T11:01:57;1.52;;;0.60;;
10657;SDS011;5377;43.276;26.930;2023-08-07T11:04:25;0.50;;;0.50;;
10657;SDS011;5377;43.276;26.930;2023-08-07T11:06:53;1.30;;;0.60;;
10657;SDS011;5377;43.276;26.930;2023-08-07T11:09:20;1.17;;;0.65;;
10657;SDS011;5377;43.276;26.930;2023-08-07T11:11:47;0.50;;;0.50;;
10657;SDS011;5377;43.276;26.930;2023-08-07T11:14:15;0.55;;;0.55;;
10657;SDS011;5377;43.276;26.930;2023-08-07T11:16:43;1.27;;;0.60;;
10657;SDS011;5377;43.276;26.930;2023-08-07T11:19:13;0.70;;;0.70;;
10657;SDS011;5377;43.276;26.930;2023-08-07T11:21:41;1.05;;;0.50;;
10657;SDS011;5377;43.276;26.930;2023-08-07T11:24:11;0.50;;;0.50;;
10657;SDS011;5377;43.276;26.930;2023-08-07T11:26:39;1.50;;;0.60;;
10657;SDS011;5377;43.276;26.930;2023-08-07T11:29:06;3.03;;;0.70;;
10657;SDS011;5377;43.276;26.930;2023-08-07T11:31:34;0.50;;;0.50;;
10657;SDS011;5377;43.276;26.930;2023-08-07T11:34:01;0.95;;;0.70;;
10657;SDS011;5377;43.276;26.930;2023-08-07T11:36:30;0.50;;;0.50;;
10657;SDS011;5377;43.276;26.930;2023-08-07T11:38:58;0.90;;;0.50;;
10657;SDS011;5377;43.276;26.930;2023-08-07T11:41:26;1.45;;;0.60;;
10657;SDS011;5377;43.276;26.930;2023-08-07T11:43:53;0.82;;;0.63;;
10657;SDS011;5377;43.276;26.930;2023-08-07T11:46:20;0.50;;;0.50;;
10657;SDS011;5377;43.276;26.930;2023-08-07T11:48:47;0.47;;;0.40;;
10657;SDS011;5377;43.276;26.930;2023-08-07T11:51:14;2.70;;;1.17;;
10657;SDS011;5377;43.276;26.930;2023-08-07T11:53:44;0.43;;;0.43;;
10657;SDS011;5377;43.276;26.930;2023-08-07T11:56:11;0.95;;;0.82;;
10657;SDS011;5377;43.276;26.930;2023-08-07T11:58:41;0.40;;;0.40;;
10657;SDS011;5377;43.276;26.930;2023-08-07T12:01:11;4.55;;;1.08;;
10657;SDS011;5377;43.276;26.930;2023-08-07T12:03:41;3.80;;;0.77;;
10657;SDS011;5377;43.276;26.930;2023-08-07T12:06:09;0.52;;;0.50;;
10657;SDS011;5377;43.276;26.930;2023-08-07T12:08:36;0.73;;;0.73;;
10657;SDS011;5377;43.276;26.930;2023-08-07T12:11:06;0.88;;;0.40;;
10657;SDS011;5377;43.276;26.930;2023-08-07T12:13:36;0.52;;;0.40;;
10657;SDS011;5377;43.276;26.930;2023-08-07T12:16:04;2.00;;;0.60;;
10657;SDS011;5377;43.276;26.930;2023-08-07T12:18:32;0.95;;;0.40;;
10657;SDS011;5377;43.276;26.930;2023-08-07T12:20:59;0.98;;;0.40;;
10657;SDS011;5377;43.276;26.930;2023-08-07T12:23:27;2.65;;;0.63;;
10657;SDS011;5377;43.276;26.930;2023-08-07T12:25:54;1.77;;;0.50;;
10657;SDS011;5377;43.276;26.930;2023-08-07T12:28:22;1.17;;;0.30;;
10657;SDS011;5377;43.276;26.930;2023-08-07T12:30:50;2.10;;;0.50;;
10657;SDS011;5377;43.276;26.930;2023-08-07T12:33:18;0.52;;;0.52;;
10657;SDS011;5377;43.276;26.930;2023-08-07T12:35:45;0.50;;;0.50;;
10657;SDS011;5377;43.276;26.930;2023-08-07T12:38:12;0.40;;;0.40;;
10657;SDS011;5377;43.276;26.930;2023-08-07T12:40:40;0.60;;;0.60;;
10657;SDS011;5377;43.276;26.930;2023-08-07T12:43:07;0.47;;;0.47;;
10657;SDS011;5377;43.276;26.930;2023-08-07T12:45:35;1.38;;;0.50;;
10657;SDS011;5377;43.276;26.930;2023-08-07T12:48:02;0.60;;;0.40;;
10657;SDS011;5377;43.276;26.930;2023-08-07T12:50:29;0.88;;;0.40;;
10657;SDS011;5377;43.276;26.930;2023-08-07T12:52:56;1.08;;;0.32;;
10657;SDS011;5377;43.276;26.930;2023-08-07T12:55:23;1.65;;;0.40;;
10657;SDS011;5377;43.276;26.930;2023-08-07T12:57:52;1.33;;;0.30;;
10657;SDS011;5377;43.276;26.930;2023-08-07T13:00:20;1.98;;;0.60;;
10657;SDS011;5377;43.276;26.930;2023-08-07T13:02:49;0.50;;;0.50;;
10657;SDS011;5377;43.276;26.930;2023-08-07T13:05:17;1.23;;;0.52;;
10657;SDS011;5377;43.276;26.930;2023-08-07T13:07:45;0.52;;;0.52;;
10657;SDS011;5377;43.276;26.930;2023-08-07T13:10:19;0.60;;;0.60;;
10657;SDS011;5377;43.276;26.930;2023-08-07T13:12:47;0.43;;;0.40;;
10657;SDS011;5377;43.276;26.930;2023-08-07T13:15:15;0.73;;;0.30;;
10657;SDS011;5377;43.276;26.930;2023-08-07T13:17:43;0.85;;;0.50;;
10657;SDS011;5377;43.276;26.930;2023-08-07T13:20:11;0.40;;;0.40;;
10657;SDS011;5377;43.276;26.930;2023-08-07T13:22:39;0.38;;;0.38;;
10657;SDS011;5377;43.276;26.930;2023-08-07T13:25:08;1.75;;;0.50;;
10657;SDS011;5377;43.276;26.930;2023-08-07T13:27:36;0.20;;;0.20;;
10657;SDS011;5377;43.276;26.930;2023-08-07T13:30:04;0.40;;;0.40;;
10657;SDS011;5377;43.276;26.930;2023-08-07T13:32:32;2.00;;;0.30;;
10657;SDS011;5377;43.276;26.930;2023-08-07T13:34:59;0.43;;;0.40;;
10657;SDS011;5377;43.276;26.930;2023-08-07T13:37:27;0.30;;;0.30;;
10657;SDS011;5377;43.276;26.930;2023-08-07T13:39:54;0.50;;;0.50;;
10657;SDS011;5377;43.276;26.930;2023-08-07T13:42:23;1.98;;;0.40;;
10657;SDS011;5377;43.276;26.930;2023-08-07T13:44:50;0.40;;;0.40;;
10657;SDS011;5377;43.276;26.930;2023-08-07T13:47:17;0.40;;;0.40;;
10657;SDS011;5377;43.276;26.930;2023-08-07T13:49:45;0.40;;;0.40;;
10657;SDS011;5377;43.276;26.930;2023-08-07T13:52:12;0.80;;;0.30;;
10657;SDS011;5377;43.276;26.930;2023-08-07T13:54:41;0.73;;;0.40;;
10657;SDS011;5377;43.276;26.930;2023-08-07T13:57:07;0.40;;;0.40;;
10657;SDS011;5377;43.276;26.930;2023-08-07T13:59:34;2.05;;;0.60;;
10657;SDS011;5377;43.276;26.930;2023-08-07T14:02:01;0.43;;;0.40;;
10657;SDS011;5377;43.276;26.930;2023-08-07T14:04:28;0.50;;;0.47;;
10657;SDS011;5377;43.276;26.930;2023-08-07T14:06:55;2.95;;;0.70;;
10657;SDS011;5377;43.276;26.930;2023-08-07T14:09:21;2.20;;;0.70;;
10657;SDS011;5377;43.276;26.930;2023-08-07T14:11:49;5.28;;;1.38;;
10657;SDS011;5377;43.276;26.930;2023-08-07T14:14:16;0.50;;;0.50;;
10657;SDS011;5377;43.276;26.930;2023-08-07T14:16:43;0.80;;;0.30;;
10657;SDS011;5377;43.276;26.930;2023-08-07T14:19:10;0.30;;;0.30;;
10657;SDS011;5377;43.276;26.930;2023-08-07T14:21:37;1.27;;;0.40;;
10657;SDS011;5377;43.276;26.930;2023-08-07T14:24:04;0.35;;;0.35;;
10657;SDS011;5377;43.276;26.930;2023-08-07T14:26:31;0.32;;;0.32;;
10657;SDS011;5377;43.276;26.930;2023-08-07T14:28:59;0.28;;;0.28;;
10657;SDS011;5377;43.276;26.930;2023-08-07T14:31:26;0.30;;;0.30;;
10657;SDS011;5377;43.276;26.930;2023-08-07T14:33:53;0.20;;;0.20;;
10657;SDS011;5377;43.276;26.930;2023-08-07T14:36:21;0.30;;;0.30;;
10657;SDS011;5377;43.276;26.930;2023-08-07T14:38:48;1.50;;;0.40;;
10657;SDS011;5377;43.276;26.930;2023-08-07T14:41:15;1.92;;;0.50;;
10657;SDS011;5377;43.276;26.930;2023-08-07T14:43:41;1.48;;;0.50;;
10657;SDS011;5377;43.276;26.930;2023-08-07T14:46:10;0.50;;;0.40;;
10657;SDS011;5377;43.276;26.930;2023-08-07T14:48:36;1.08;;;0.30;;
10657;SDS011;5377;43.276;26.930;2023-08-07T14:51:03;0.63;;;0.50;;